sensor_id;sensor_type;location;lat;lon;timestamp;P1;durP1;ratioP1;P2;durP2;ratioP2
51971;SDS011;37991;49.662;10.060;2022-09-12T00:01:55;12.15;;;6.20;;
51971;SDS011;37991;49.662;10.060;2022-09-12T00:04:20;10.20;;;5.60;;
51971;SDS011;37991;49.662;10.060;2022-09-12T00:06:46;14.35;;;7.30;;
51971;SDS011;37991;49.662;10.060;2022-09-12T00:09:12;11.88;;;6.53;;
51971;SDS011;37991;49.662;10.060;2022-09-12T00:11:38;10.80;;;5.65;;
51971;SDS011;37991;49.662;10.060;2022-09-12T00:14:06;11.20;;;6.10;;
51971;SDS011;37991;49.662;10.060;2022-09-12T00:16:33;11.13;;;6.15;;
51971;SDS011;37991;49.662;10.060;2022-09-12T00:19:00;10.40;;;5.78;;
51971;SDS011;37991;49.662;10.060;2022-09-12T00:21:27;16.42;;;5.65;;
51971;SDS011;37991;49.662;10.060;2022-09-12T00:23:52;13.32;;;6.63;;
51971;SDS011;37991;49.662;10.060;2022-09-12T00:26:19;12.82;;;6.20;;
51971;SDS011;37991;49.662;10.060;2022-09-12T00:28:46;13.55;;;6.47;;
51971;SDS011;37991;49.662;10.060;2022-09-12T00:31:12;10.13;;;5.80;;
51971;SDS011;37991;49.662;10.060;2022-09-12T00:33:41;10.93;;;5.88;;
51971;SDS011;37991;49.662;10.060;2022-09-12T00:36:13;12.02;;;5.78;;
51971;SDS011;37991;49.662;10.060;2022-09-12T00:38:40;10.48;;;5.38;;
51971;SDS011;37991;49.662;10.060;2022-09-12T00:41:07;12.55;;;6.18;;
51971;SDS011;37991;49.662;10.060;2022-09-12T00:43:40;13.02;;;6.32;;
51971;SDS011;37991;49.662;10.060;2022-09-12T00:48:57;10.85;;;5.47;;
51971;SDS011;37991;49.662;10.060;2022-09-12T00:51:43;11.50;;;5.68;;
51971;SDS011;37991;49.662;10.060;2022-09-12T00:54:16;10.35;;;5.07;;
51971;SDS011;37991;49.662;10.060;2022-09-12T00:56:46;11.38;;;5.68;;
51971;SDS011;37991;49.662;10.060;2022-09-12T00:59:16;15.20;;;5.90;;
51971;SDS011;37991;49.662;10.060;2022-09-12T01:01:46;11.18;;;5.68;;
51971;SDS011;37991;49.662;10.060;2022-09-12T01:04:14;11.82;;;5.70;;
51971;SDS011;37991;49.662;10.060;2022-09-12T01:06:42;9.75;;;5.43;;
51971;SDS011;37991;49.662;10.060;2022-09-12T01:09:09;13.05;;;5.90;;
51971;SDS011;37991;49.662;10.060;2022-09-12T01:11:37;12.05;;;6.63;;
51971;SDS011;37991;49.662;10.060;2022-09-12T01:14:04;11.30;;;5.97;;
51971;SDS011;37991;49.662;10.060;2022-09-12T01:16:33;13.52;;;6.32;;
51971;SDS011;37991;49.662;10.060;2022-09-12T01:19:18;13.02;;;6.10;;
51971;SDS011;37991;49.662;10.060;2022-09-12T01:30:42;9.70;;;5.33;;
51971;SDS011;37991;49.662;10.060;2022-09-12T01:33:13;12.68;;;5.65;;
51971;SDS011;37991;49.662;10.060;2022-09-12T01:41:05;10.75;;;6.07;;
51971;SDS011;37991;49.662;10.060;2022-09-12T01:44:00;10.35;;;4.90;;
51971;SDS011;37991;49.662;10.060;2022-09-12T01:46:29;10.85;;;5.15;;
51971;SDS011;37991;49.662;10.060;2022-09-12T01:49:01;10.80;;;5.40;;
51971;SDS011;37991;49.662;10.060;2022-09-12T01:51:50;10.35;;;5.53;;
51971;SDS011;37991;49.662;10.060;2022-09-12T01:54:38;14.32;;;6.03;;
51971;SDS011;37991;49.662;10.060;2022-09-12T01:57:11;11.60;;;6.13;;
51971;SDS011;37991;49.662;10.060;2022-09-12T01:59:43;10.93;;;5.57;;
51971;SDS011;37991;49.662;10.060;2022-09-12T02:02:24;11.25;;;5.55;;
51971;SDS011;37991;49.662;10.060;2022-09-12T02:05:02;10.02;;;5.28;;
51971;SDS011;37991;49.662;10.060;2022-09-12T02:07:37;10.68;;;5.18;;
51971;SDS011;37991;49.662;10.060;2022-09-12T02:10:22;11.43;;;5.65;;
51971;SDS011;37991;49.662;10.060;2022-09-12T02:13:00;12.50;;;5.63;;
51971;SDS011;37991;49.662;10.060;2022-09-12T02:15:33;11.10;;;5.40;;
51971;SDS011;37991;49.662;10.060;2022-09-12T02:18:03;9.20;;;4.90;;
51971;SDS011;37991;49.662;10.060;2022-09-12T02:20:33;11.82;;;5.90;;
51971;SDS011;37991;49.662;10.060;2022-09-12T02:23:02;13.77;;;5.40;;
51971;SDS011;37991;49.662;10.060;2022-09-12T02:25:32;11.38;;;5.50;;
51971;SDS011;37991;49.662;10.060;2022-09-12T02:28:03;10.43;;;5.15;;
51971;SDS011;37991;49.662;10.060;2022-09-12T02:30:38;7.93;;;4.75;;
51971;SDS011;37991;49.662;10.060;2022-09-12T02:36:21;11.77;;;5.45;;
51971;SDS011;37991;49.662;10.060;2022-09-12T02:39:01;10.77;;;5.10;;
51971;SDS011;37991;49.662;10.060;2022-09-12T02:41:27;9.55;;;5.32;;
51971;SDS011;37991;49.662;10.060;2022-09-12T02:43:52;12.43;;;5.85;;
51971;SDS011;37991;49.662;10.060;2022-09-12T02:46:29;11.20;;;5.60;;
51971;SDS011;37991;49.662;10.060;2022-09-12T02:49:00;9.43;;;5.32;;
51971;SDS011;37991;49.662;10.060;2022-09-12T02:51:25;11.02;;;5.50;;
51971;SDS011;37991;49.662;10.060;2022-09-12T02:53:51;12.50;;;5.22;;
51971;SDS011;37991;49.662;10.060;2022-09-12T02:56:19;15.02;;;5.78;;
51971;SDS011;37991;49.662;10.060;2022-09-12T02:58:49;11.85;;;5.97;;
51971;SDS011;37991;49.662;10.060;2022-09-12T03:01:23;14.52;;;5.28;;
51971;SDS011;37991;49.662;10.060;2022-09-12T03:06:30;12.25;;;5.72;;
51971;SDS011;37991;49.662;10.060;2022-09-12T03:09:11;13.20;;;5.63;;
51971;SDS011;37991;49.662;10.060;2022-09-12T03:14:59;10.93;;;5.65;;
51971;SDS011;37991;49.662;10.060;2022-09-12T03:22:54;15.32;;;5.85;;
51971;SDS011;37991;49.662;10.060;2022-09-12T03:25:33;11.90;;;6.00;;
51971;SDS011;37991;49.662;10.060;2022-09-12T03:28:08;9.88;;;5.47;;
51971;SDS011;37991;49.662;10.060;2022-09-12T03:30:38;9.65;;;5.03;;
51971;SDS011;37991;49.662;10.060;2022-09-12T03:33:05;11.20;;;5.72;;
51971;SDS011;37991;49.662;10.060;2022-09-12T03:35:35;9.48;;;5.07;;
51971;SDS011;37991;49.662;10.060;2022-09-12T03:38:00;9.68;;;5.28;;
51971;SDS011;37991;49.662;10.060;2022-09-12T03:40:26;10.38;;;5.68;;
51971;SDS011;37991;49.662;10.060;2022-09-12T03:42:51;11.80;;;4.95;;
51971;SDS011;37991;49.662;10.060;2022-09-12T03:45:16;9.77;;;4.97;;
51971;SDS011;37991;49.662;10.060;2022-09-12T03:47:42;11.35;;;4.93;;
51971;SDS011;37991;49.662;10.060;2022-09-12T03:50:07;12.88;;;5.68;;
51971;SDS011;37991;49.662;10.060;2022-09-12T03:52:33;10.73;;;5.13;;
51971;SDS011;37991;49.662;10.060;2022-09-12T03:54:58;12.40;;;5.63;;
51971;SDS011;37991;49.662;10.060;2022-09-12T03:57:23;8.65;;;4.95;;
51971;SDS011;37991;49.662;10.060;2022-09-12T03:59:49;9.57;;;5.15;;
51971;SDS011;37991;49.662;10.060;2022-09-12T04:02:14;12.50;;;5.68;;
51971;SDS011;37991;49.662;10.060;2022-09-12T04:04:40;10.23;;;4.80;;
51971;SDS011;37991;49.662;10.060;2022-09-12T04:07:09;12.07;;;5.05;;
51971;SDS011;37991;49.662;10.060;2022-09-12T04:09:35;9.88;;;5.28;;
51971;SDS011;37991;49.662;10.060;2022-09-12T04:12:00;11.55;;;5.60;;
51971;SDS011;37991;49.662;10.060;2022-09-12T04:14:26;11.45;;;5.47;;
51971;SDS011;37991;49.662;10.060;2022-09-12T04:16:51;10.20;;;5.25;;
51971;SDS011;37991;49.662;10.060;2022-09-12T04:19:17;10.82;;;5.72;;
51971;SDS011;37991;49.662;10.060;2022-09-12T04:21:42;11.77;;;5.65;;
51971;SDS011;37991;49.662;10.060;2022-09-12T04:24:07;11.68;;;6.10;;
51971;SDS011;37991;49.662;10.060;2022-09-12T04:26:33;14.10;;;5.75;;
51971;SDS011;37991;49.662;10.060;2022-09-12T04:28:58;13.93;;;5.78;;
51971;SDS011;37991;49.662;10.060;2022-09-12T04:31:23;13.45;;;6.57;;
51971;SDS011;37991;49.662;10.060;2022-09-12T04:33:53;16.10;;;6.80;;
51971;SDS011;37991;49.662;10.060;2022-09-12T04:36:20;12.55;;;6.63;;
51971;SDS011;37991;49.662;10.060;2022-09-12T04:38:47;12.98;;;6.60;;
51971;SDS011;37991;49.662;10.060;2022-09-12T04:41:20;13.55;;;6.50;;
51971;SDS011;37991;49.662;10.060;2022-09-12T04:43:50;13.65;;;5.55;;
51971;SDS011;37991;49.662;10.060;2022-09-12T04:46:17;13.93;;;6.72;;
51971;SDS011;37991;49.662;10.060;2022-09-12T04:48:44;16.65;;;6.78;;
51971;SDS011;37991;49.662;10.060;2022-09-12T04:51:11;17.23;;;7.13;;
51971;SDS011;37991;49.662;10.060;2022-09-12T04:53:39;15.07;;;6.53;;
51971;SDS011;37991;49.662;10.060;2022-09-12T04:56:06;21.38;;;6.88;;
51971;SDS011;37991;49.662;10.060;2022-09-12T04:58:33;21.58;;;7.13;;
51971;SDS011;37991;49.662;10.060;2022-09-12T05:01:03;15.25;;;6.63;;
51971;SDS011;37991;49.662;10.060;2022-09-12T05:03:36;18.10;;;6.65;;
51971;SDS011;37991;49.662;10.060;2022-09-12T05:06:06;20.75;;;7.15;;
51971;SDS011;37991;49.662;10.060;2022-09-12T05:08:34;26.60;;;7.20;;
51971;SDS011;37991;49.662;10.060;2022-09-12T05:11:03;16.95;;;7.45;;
51971;SDS011;37991;49.662;10.060;2022-09-12T05:13:31;15.55;;;6.78;;
51971;SDS011;37991;49.662;10.060;2022-09-12T05:15:58;21.05;;;6.80;;
51971;SDS011;37991;49.662;10.060;2022-09-12T05:18:25;14.75;;;6.85;;
51971;SDS011;37991;49.662;10.060;2022-09-12T05:20:51;27.25;;;7.38;;
51971;SDS011;37991;49.662;10.060;2022-09-12T05:23:17;55.72;;;9.95;;
51971;SDS011;37991;49.662;10.060;2022-09-12T05:25:49;16.88;;;7.60;;
51971;SDS011;37991;49.662;10.060;2022-09-12T05:28:15;15.90;;;7.07;;
51971;SDS011;37991;49.662;10.060;2022-09-12T05:30:40;20.05;;;6.82;;
51971;SDS011;37991;49.662;10.060;2022-09-12T05:33:05;13.77;;;6.80;;
51971;SDS011;37991;49.662;10.060;2022-09-12T05:35:31;18.77;;;6.80;;
51971;SDS011;37991;49.662;10.060;2022-09-12T05:37:57;15.13;;;6.93;;
51971;SDS011;37991;49.662;10.060;2022-09-12T05:40:22;25.02;;;7.50;;
51971;SDS011;37991;49.662;10.060;2022-09-12T05:42:48;15.18;;;7.13;;
51971;SDS011;37991;49.662;10.060;2022-09-12T05:45:13;17.00;;;7.78;;
51971;SDS011;37991;49.662;10.060;2022-09-12T05:47:39;19.67;;;7.75;;
51971;SDS011;37991;49.662;10.060;2022-09-12T05:50:04;21.30;;;8.45;;
51971;SDS011;37991;49.662;10.060;2022-09-12T05:52:34;28.48;;;7.68;;
51971;SDS011;37991;49.662;10.060;2022-09-12T05:55:00;26.05;;;7.78;;
51971;SDS011;37991;49.662;10.060;2022-09-12T05:57:26;26.02;;;7.35;;
51971;SDS011;37991;49.662;10.060;2022-09-12T05:59:51;26.67;;;6.97;;
51971;SDS011;37991;49.662;10.060;2022-09-12T06:02:17;13.85;;;6.07;;
51971;SDS011;37991;49.662;10.060;2022-09-12T06:04:42;37.70;;;7.82;;
51971;SDS011;37991;49.662;10.060;2022-09-12T06:07:07;43.38;;;7.55;;
51971;SDS011;37991;49.662;10.060;2022-09-12T06:09:33;12.73;;;5.88;;
51971;SDS011;37991;49.662;10.060;2022-09-12T06:11:58;12.50;;;6.25;;
51971;SDS011;37991;49.662;10.060;2022-09-12T06:14:24;27.67;;;6.50;;
51971;SDS011;37991;49.662;10.060;2022-09-12T06:16:50;51.60;;;7.68;;
51971;SDS011;37991;49.662;10.060;2022-09-12T06:19:16;13.82;;;6.82;;
51971;SDS011;37991;49.662;10.060;2022-09-12T06:21:43;11.80;;;6.28;;
51971;SDS011;37991;49.662;10.060;2022-09-12T06:24:09;16.60;;;6.72;;
51971;SDS011;37991;49.662;10.060;2022-09-12T06:26:35;12.07;;;6.25;;
51971;SDS011;37991;49.662;10.060;2022-09-12T06:29:01;18.85;;;6.22;;
51971;SDS011;37991;49.662;10.060;2022-09-12T06:31:33;14.15;;;6.60;;
51971;SDS011;37991;49.662;10.060;2022-09-12T06:34:05;11.50;;;6.10;;
51971;SDS011;37991;49.662;10.060;2022-09-12T06:36:33;10.85;;;6.03;;
51971;SDS011;37991;49.662;10.060;2022-09-12T06:39:08;15.15;;;5.60;;
51971;SDS011;37991;49.662;10.060;2022-09-12T06:41:35;11.63;;;5.70;;
51971;SDS011;37991;49.662;10.060;2022-09-12T06:44:01;12.50;;;6.22;;
51971;SDS011;37991;49.662;10.060;2022-09-12T06:46:27;9.93;;;5.53;;
51971;SDS011;37991;49.662;10.060;2022-09-12T06:48:54;11.05;;;5.78;;
51971;SDS011;37991;49.662;10.060;2022-09-12T06:51:20;9.70;;;5.43;;
51971;SDS011;37991;49.662;10.060;2022-09-12T06:53:46;10.98;;;5.68;;
51971;SDS011;37991;49.662;10.060;2022-09-12T06:56:13;10.80;;;5.63;;
51971;SDS011;37991;49.662;10.060;2022-09-12T06:58:40;10.68;;;5.65;;
51971;SDS011;37991;49.662;10.060;2022-09-12T07:03:39;9.30;;;5.32;;
51971;SDS011;37991;49.662;10.060;2022-09-12T07:08:33;9.93;;;5.65;;
51971;SDS011;37991;49.662;10.060;2022-09-12T07:11:08;14.02;;;6.28;;
51971;SDS011;37991;49.662;10.060;2022-09-12T07:13:45;10.90;;;5.63;;
51971;SDS011;37991;49.662;10.060;2022-09-12T07:16:12;11.32;;;5.80;;
51971;SDS011;37991;49.662;10.060;2022-09-12T07:18:38;12.32;;;6.30;;
51971;SDS011;37991;49.662;10.060;2022-09-12T07:21:05;9.55;;;5.65;;
51971;SDS011;37991;49.662;10.060;2022-09-12T07:23:32;14.32;;;5.95;;
51971;SDS011;37991;49.662;10.060;2022-09-12T07:25:58;14.15;;;6.38;;
51971;SDS011;37991;49.662;10.060;2022-09-12T07:28:28;10.95;;;5.88;;
51971;SDS011;37991;49.662;10.060;2022-09-12T07:30:55;17.13;;;6.85;;
51971;SDS011;37991;49.662;10.060;2022-09-12T07:33:21;11.98;;;6.30;;
51971;SDS011;37991;49.662;10.060;2022-09-12T07:35:48;14.57;;;6.82;;
51971;SDS011;37991;49.662;10.060;2022-09-12T07:38:14;12.70;;;6.60;;
51971;SDS011;37991;49.662;10.060;2022-09-12T07:40:40;11.90;;;6.63;;
51971;SDS011;37991;49.662;10.060;2022-09-12T07:43:06;13.63;;;6.35;;
51971;SDS011;37991;49.662;10.060;2022-09-12T07:45:31;12.02;;;6.47;;
51971;SDS011;37991;49.662;10.060;2022-09-12T07:47:57;11.52;;;5.93;;
51971;SDS011;37991;49.662;10.060;2022-09-12T07:50:22;13.15;;;6.57;;
51971;SDS011;37991;49.662;10.060;2022-09-12T07:52:47;14.68;;;6.63;;
51971;SDS011;37991;49.662;10.060;2022-09-12T07:55:13;11.68;;;6.28;;
51971;SDS011;37991;49.662;10.060;2022-09-12T07:57:38;13.80;;;6.63;;
51971;SDS011;37991;49.662;10.060;2022-09-12T08:00:04;14.05;;;6.95;;
51971;SDS011;37991;49.662;10.060;2022-09-12T08:02:37;14.45;;;7.25;;
51971;SDS011;37991;49.662;10.060;2022-09-12T08:05:02;12.15;;;6.32;;
51971;SDS011;37991;49.662;10.060;2022-09-12T08:07:28;14.77;;;6.93;;
51971;SDS011;37991;49.662;10.060;2022-09-12T08:09:53;13.23;;;6.78;;
51971;SDS011;37991;49.662;10.060;2022-09-12T08:12:19;13.77;;;6.90;;
51971;SDS011;37991;49.662;10.060;2022-09-12T08:14:44;13.05;;;7.55;;
51971;SDS011;37991;49.662;10.060;2022-09-12T08:17:10;15.30;;;7.45;;
51971;SDS011;37991;49.662;10.060;2022-09-12T08:19:35;16.50;;;7.53;;
51971;SDS011;37991;49.662;10.060;2022-09-12T08:22:01;17.23;;;7.60;;
51971;SDS011;37991;49.662;10.060;2022-09-12T08:24:26;13.55;;;7.03;;
51971;SDS011;37991;49.662;10.060;2022-09-12T08:26:52;16.80;;;7.88;;
51971;SDS011;37991;49.662;10.060;2022-09-12T08:29:17;14.07;;;7.68;;
51971;SDS011;37991;49.662;10.060;2022-09-12T08:31:42;14.77;;;7.30;;
51971;SDS011;37991;49.662;10.060;2022-09-12T08:34:08;13.77;;;6.82;;
51971;SDS011;37991;49.662;10.060;2022-09-12T08:36:33;12.57;;;6.60;;
51971;SDS011;37991;49.662;10.060;2022-09-12T08:39:01;15.20;;;8.10;;
51971;SDS011;37991;49.662;10.060;2022-09-12T08:41:29;14.25;;;7.05;;
51971;SDS011;37991;49.662;10.060;2022-09-12T08:46:46;17.13;;;7.55;;
51971;SDS011;37991;49.662;10.060;2022-09-12T08:49:29;14.68;;;8.05;;
51971;SDS011;37991;49.662;10.060;2022-09-12T08:51:58;14.40;;;7.57;;
51971;SDS011;37991;49.662;10.060;2022-09-12T08:54:31;16.77;;;8.02;;
51971;SDS011;37991;49.662;10.060;2022-09-12T08:57:00;14.27;;;7.50;;
51971;SDS011;37991;49.662;10.060;2022-09-12T08:59:29;13.88;;;7.78;;
51971;SDS011;37991;49.662;10.060;2022-09-12T09:02:24;14.75;;;7.78;;
51971;SDS011;37991;49.662;10.060;2022-09-12T09:07:53;14.93;;;7.50;;
51971;SDS011;37991;49.662;10.060;2022-09-12T09:13:46;12.70;;;7.70;;
51971;SDS011;37991;49.662;10.060;2022-09-12T09:16:41;18.70;;;9.38;;
51971;SDS011;37991;49.662;10.060;2022-09-12T09:19:14;16.23;;;8.13;;
51971;SDS011;37991;49.662;10.060;2022-09-12T09:21:49;16.00;;;8.23;;
51971;SDS011;37991;49.662;10.060;2022-09-12T09:24:20;13.82;;;7.57;;
51971;SDS011;37991;49.662;10.060;2022-09-12T09:29:26;15.80;;;8.23;;
51971;SDS011;37991;49.662;10.060;2022-09-12T09:32:11;15.30;;;8.35;;
51971;SDS011;37991;49.662;10.060;2022-09-12T09:34:42;15.05;;;7.93;;
51971;SDS011;37991;49.662;10.060;2022-09-12T09:37:24;18.13;;;8.82;;
51971;SDS011;37991;49.662;10.060;2022-09-12T09:43:31;15.30;;;8.60;;
51971;SDS011;37991;49.662;10.060;2022-09-12T09:45:43;15.85;;;7.82;;
51971;SDS011;37991;49.662;10.060;2022-09-12T09:50:35;17.27;;;8.40;;
51971;SDS011;37991;49.662;10.060;2022-09-12T09:53:01;16.60;;;8.65;;
51971;SDS011;37991;49.662;10.060;2022-09-12T09:55:38;16.45;;;8.23;;
51971;SDS011;37991;49.662;10.060;2022-09-12T09:58:07;14.75;;;7.82;;
51971;SDS011;37991;49.662;10.060;2022-09-12T10:00:33;17.95;;;9.23;;
51971;SDS011;37991;49.662;10.060;2022-09-12T10:05:46;14.65;;;8.07;;
51971;SDS011;37991;49.662;10.060;2022-09-12T10:10:57;16.10;;;8.40;;
51971;SDS011;37991;49.662;10.060;2022-09-12T10:13:42;17.30;;;9.20;;
51971;SDS011;37991;49.662;10.060;2022-09-12T10:16:21;18.13;;;8.80;;
51971;SDS011;37991;49.662;10.060;2022-09-12T10:18:50;18.92;;;8.52;;
51971;SDS011;37991;49.662;10.060;2022-09-12T10:24:00;18.80;;;8.93;;
51971;SDS011;37991;49.662;10.060;2022-09-12T10:26:39;16.25;;;8.77;;
51971;SDS011;37991;49.662;10.060;2022-09-12T10:29:15;15.65;;;8.20;;
51971;SDS011;37991;49.662;10.060;2022-09-12T10:31:52;16.13;;;7.40;;
51971;SDS011;37991;49.662;10.060;2022-09-12T10:34:27;15.95;;;8.05;;
51971;SDS011;37991;49.662;10.060;2022-09-12T10:37:00;18.30;;;8.35;;
51971;SDS011;37991;49.662;10.060;2022-09-12T10:39:28;14.00;;;7.43;;
51971;SDS011;37991;49.662;10.060;2022-09-12T10:41:55;14.65;;;7.70;;
51971;SDS011;37991;49.662;10.060;2022-09-12T10:44:25;15.68;;;6.85;;
51971;SDS011;37991;49.662;10.060;2022-09-12T10:46:53;17.58;;;6.90;;
51971;SDS011;37991;49.662;10.060;2022-09-12T10:49:21;14.40;;;7.43;;
51971;SDS011;37991;49.662;10.060;2022-09-12T10:51:54;14.15;;;7.28;;
51971;SDS011;37991;49.662;10.060;2022-09-12T10:54:24;13.02;;;6.95;;
51971;SDS011;37991;49.662;10.060;2022-09-12T10:57:02;11.43;;;6.10;;
51971;SDS011;37991;49.662;10.060;2022-09-12T11:02:28;10.35;;;5.32;;
51971;SDS011;37991;49.662;10.060;2022-09-12T11:16:47;7.88;;;4.70;;
51971;SDS011;37991;49.662;10.060;2022-09-12T11:27:17;7.95;;;4.85;;
51971;SDS011;37991;49.662;10.060;2022-09-12T11:29:53;6.35;;;4.40;;
51971;SDS011;37991;49.662;10.060;2022-09-12T11:32:42;6.40;;;4.00;;
51971;SDS011;37991;49.662;10.060;2022-09-12T11:35:22;7.75;;;4.97;;
51971;SDS011;37991;49.662;10.060;2022-09-12T11:43:09;8.27;;;4.53;;
51971;SDS011;37991;49.662;10.060;2022-09-12T11:45:40;7.88;;;4.30;;
51971;SDS011;37991;49.662;10.060;2022-09-12T11:48:11;7.80;;;5.28;;
51971;SDS011;37991;49.662;10.060;2022-09-12T11:50:42;8.23;;;4.97;;
51971;SDS011;37991;49.662;10.060;2022-09-12T11:53:13;11.73;;;5.20;;
51971;SDS011;37991;49.662;10.060;2022-09-12T11:55:51;9.23;;;4.93;;
51971;SDS011;37991;49.662;10.060;2022-09-12T11:58:21;8.55;;;4.95;;
51971;SDS011;37991;49.662;10.060;2022-09-12T12:00:51;8.68;;;4.68;;
51971;SDS011;37991;49.662;10.060;2022-09-12T12:03:30;7.65;;;4.53;;
51971;SDS011;37991;49.662;10.060;2022-09-12T12:06:02;8.43;;;4.95;;
51971;SDS011;37991;49.662;10.060;2022-09-12T12:08:30;6.72;;;4.43;;
51971;SDS011;37991;49.662;10.060;2022-09-12T12:11:02;6.70;;;4.38;;
51971;SDS011;37991;49.662;10.060;2022-09-12T12:13:33;7.18;;;4.43;;
51971;SDS011;37991;49.662;10.060;2022-09-12T12:18:52;7.25;;;4.25;;
51971;SDS011;37991;49.662;10.060;2022-09-12T12:34:29;6.72;;;4.15;;
51971;SDS011;37991;49.662;10.060;2022-09-12T12:36:59;6.57;;;4.10;;
51971;SDS011;37991;49.662;10.060;2022-09-12T12:52:48;5.60;;;3.75;;
51971;SDS011;37991;49.662;10.060;2022-09-12T12:55:24;5.82;;;3.67;;
51971;SDS011;37991;49.662;10.060;2022-09-12T12:57:56;5.05;;;3.65;;
51971;SDS011;37991;49.662;10.060;2022-09-12T13:02:55;5.63;;;3.57;;
51971;SDS011;37991;49.662;10.060;2022-09-12T13:05:22;6.10;;;3.75;;
51971;SDS011;37991;49.662;10.060;2022-09-12T13:08:03;5.38;;;3.42;;
51971;SDS011;37991;49.662;10.060;2022-09-12T13:10:34;5.75;;;3.30;;
51971;SDS011;37991;49.662;10.060;2022-09-12T13:13:01;5.85;;;3.88;;
51971;SDS011;37991;49.662;10.060;2022-09-12T13:18:05;5.82;;;3.80;;
51971;SDS011;37991;49.662;10.060;2022-09-12T13:20:37;6.40;;;3.80;;
51971;SDS011;37991;49.662;10.060;2022-09-12T13:23:24;6.80;;;4.00;;
51971;SDS011;37991;49.662;10.060;2022-09-12T13:25:56;7.22;;;3.65;;
51971;SDS011;37991;49.662;10.060;2022-09-12T13:28:24;5.65;;;3.70;;
51971;SDS011;37991;49.662;10.060;2022-09-12T13:33:53;6.25;;;3.50;;
51971;SDS011;37991;49.662;10.060;2022-09-12T13:36:24;4.93;;;3.70;;
51971;SDS011;37991;49.662;10.060;2022-09-12T13:39:04;5.30;;;3.70;;
51971;SDS011;37991;49.662;10.060;2022-09-12T13:44:29;6.65;;;3.95;;
51971;SDS011;37991;49.662;10.060;2022-09-12T13:47:01;4.60;;;3.38;;
51971;SDS011;37991;49.662;10.060;2022-09-12T13:49:31;6.68;;;3.30;;
51971;SDS011;37991;49.662;10.060;2022-09-12T13:52:06;5.30;;;3.17;;
51971;SDS011;37991;49.662;10.060;2022-09-12T13:54:38;7.00;;;3.40;;
51971;SDS011;37991;49.662;10.060;2022-09-12T13:57:04;4.32;;;3.33;;
51971;SDS011;37991;49.662;10.060;2022-09-12T13:59:39;5.20;;;3.42;;
51971;SDS011;37991;49.662;10.060;2022-09-12T14:02:19;6.32;;;3.50;;
51971;SDS011;37991;49.662;10.060;2022-09-12T14:04:47;4.95;;;3.05;;
51971;SDS011;37991;49.662;10.060;2022-09-12T14:07:36;6.57;;;3.55;;
51971;SDS011;37991;49.662;10.060;2022-09-12T14:10:12;4.63;;;3.28;;
51971;SDS011;37991;49.662;10.060;2022-09-12T14:12:42;5.78;;;3.88;;
51971;SDS011;37991;49.662;10.060;2022-09-12T14:15:20;5.75;;;3.47;;
51971;SDS011;37991;49.662;10.060;2022-09-12T14:17:52;4.57;;;3.30;;
51971;SDS011;37991;49.662;10.060;2022-09-12T14:20:20;5.20;;;3.35;;
51971;SDS011;37991;49.662;10.060;2022-09-12T14:22:48;4.15;;;3.25;;
51971;SDS011;37991;49.662;10.060;2022-09-12T14:25:16;7.13;;;3.72;;
51971;SDS011;37991;49.662;10.060;2022-09-12T14:27:44;4.60;;;3.42;;
51971;SDS011;37991;49.662;10.060;2022-09-12T14:30:34;6.68;;;3.28;;
51971;SDS011;37991;49.662;10.060;2022-09-12T14:33:01;4.68;;;3.30;;
51971;SDS011;37991;49.662;10.060;2022-09-12T14:35:36;4.75;;;3.45;;
51971;SDS011;37991;49.662;10.060;2022-09-12T14:38:12;5.57;;;3.03;;
51971;SDS011;37991;49.662;10.060;2022-09-12T14:40:39;6.40;;;2.85;;
51971;SDS011;37991;49.662;10.060;2022-09-12T14:43:15;4.43;;;3.05;;
51971;SDS011;37991;49.662;10.060;2022-09-12T14:45:50;5.15;;;3.70;;
51971;SDS011;37991;49.662;10.060;2022-09-12T14:48:18;7.63;;;4.10;;
51971;SDS011;37991;49.662;10.060;2022-09-12T14:50:47;4.80;;;3.30;;
51971;SDS011;37991;49.662;10.060;2022-09-12T14:55:49;4.95;;;3.28;;
51971;SDS011;37991;49.662;10.060;2022-09-12T15:08:48;6.07;;;3.97;;
51971;SDS011;37991;49.662;10.060;2022-09-12T15:11:13;5.20;;;3.20;;
51971;SDS011;37991;49.662;10.060;2022-09-12T15:13:40;4.43;;;3.50;;
51971;SDS011;37991;49.662;10.060;2022-09-12T15:16:06;4.30;;;3.30;;
51971;SDS011;37991;49.662;10.060;2022-09-12T15:18:34;6.65;;;3.47;;
51971;SDS011;37991;49.662;10.060;2022-09-12T15:21:00;5.18;;;3.10;;
51971;SDS011;37991;49.662;10.060;2022-09-12T15:25:55;4.80;;;3.25;;
51971;SDS011;37991;49.662;10.060;2022-09-12T15:28:21;5.95;;;3.58;;
51971;SDS011;37991;49.662;10.060;2022-09-12T15:30:48;3.97;;;2.90;;
51971;SDS011;37991;49.662;10.060;2022-09-12T15:33:17;4.45;;;3.30;;
51971;SDS011;37991;49.662;10.060;2022-09-12T15:35:43;5.25;;;2.92;;
51971;SDS011;37991;49.662;10.060;2022-09-12T15:38:09;5.07;;;3.58;;
51971;SDS011;37991;49.662;10.060;2022-09-12T15:40:34;4.15;;;3.17;;
51971;SDS011;37991;49.662;10.060;2022-09-12T15:42:59;5.65;;;3.67;;
51971;SDS011;37991;49.662;10.060;2022-09-12T15:45:25;4.32;;;3.20;;
51971;SDS011;37991;49.662;10.060;2022-09-12T15:47:53;5.22;;;3.60;;
51971;SDS011;37991;49.662;10.060;2022-09-12T15:50:19;6.22;;;3.10;;
51971;SDS011;37991;49.662;10.060;2022-09-12T15:52:44;4.07;;;3.03;;
51971;SDS011;37991;49.662;10.060;2022-09-12T15:55:15;4.13;;;3.10;;
51971;SDS011;37991;49.662;10.060;2022-09-12T15:57:41;6.07;;;3.72;;
51971;SDS011;37991;49.662;10.060;2022-09-12T16:00:07;4.75;;;3.10;;
51971;SDS011;37991;49.662;10.060;2022-09-12T16:02:36;4.90;;;3.25;;
51971;SDS011;37991;49.662;10.060;2022-09-12T16:05:02;4.53;;;3.28;;
51971;SDS011;37991;49.662;10.060;2022-09-12T16:07:28;4.72;;;3.13;;
51971;SDS011;37991;49.662;10.060;2022-09-12T16:09:54;7.35;;;3.70;;
51971;SDS011;37991;49.662;10.060;2022-09-12T16:12:19;5.70;;;3.47;;
51971;SDS011;37991;49.662;10.060;2022-09-12T16:14:45;6.50;;;3.47;;
51971;SDS011;37991;49.662;10.060;2022-09-12T16:17:10;5.75;;;3.70;;
51971;SDS011;37991;49.662;10.060;2022-09-12T16:19:35;5.75;;;3.10;;
51971;SDS011;37991;49.662;10.060;2022-09-12T16:22:01;7.32;;;3.33;;
51971;SDS011;37991;49.662;10.060;2022-09-12T16:24:26;4.80;;;3.22;;
51971;SDS011;37991;49.662;10.060;2022-09-12T16:26:51;6.20;;;3.00;;
51971;SDS011;37991;49.662;10.060;2022-09-12T16:29:17;4.28;;;3.17;;
51971;SDS011;37991;49.662;10.060;2022-09-12T16:31:42;7.20;;;3.22;;
51971;SDS011;37991;49.662;10.060;2022-09-12T16:34:09;5.85;;;3.15;;
51971;SDS011;37991;49.662;10.060;2022-09-12T16:36:34;4.15;;;3.15;;
51971;SDS011;37991;49.662;10.060;2022-09-12T16:39:00;5.90;;;3.28;;
51971;SDS011;37991;49.662;10.060;2022-09-12T16:41:26;5.47;;;3.47;;
51971;SDS011;37991;49.662;10.060;2022-09-12T16:43:52;5.05;;;3.15;;
51971;SDS011;37991;49.662;10.060;2022-09-12T16:46:21;8.63;;;3.90;;
51971;SDS011;37991;49.662;10.060;2022-09-12T16:48:48;6.70;;;3.38;;
51971;SDS011;37991;49.662;10.060;2022-09-12T16:51:19;7.68;;;3.80;;
51971;SDS011;37991;49.662;10.060;2022-09-12T16:53:45;5.65;;;3.70;;
51971;SDS011;37991;49.662;10.060;2022-09-12T16:56:12;4.90;;;3.58;;
51971;SDS011;37991;49.662;10.060;2022-09-12T16:58:38;8.10;;;3.80;;
51971;SDS011;37991;49.662;10.060;2022-09-12T17:01:06;5.53;;;3.80;;
51971;SDS011;37991;49.662;10.060;2022-09-12T17:03:36;6.63;;;3.05;;
51971;SDS011;37991;49.662;10.060;2022-09-12T17:06:05;4.90;;;3.17;;